createdAt,value
2023-02-08T00:01:26.192Z,21.77
2023-02-08T00:04:13.741Z,20.53
2023-02-08T00:07:01.058Z,21.10
2023-02-08T00:09:49.268Z,21.13
2023-02-08T00:12:37.097Z,20.33
2023-02-08T00:15:25.949Z,18.80
2023-02-08T00:18:13.737Z,20.07
2023-02-08T00:21:01.224Z,20.13
2023-02-08T00:23:48.808Z,19.33
2023-02-08T00:26:36.291Z,20.87
2023-02-08T00:29:23.839Z,19.47
2023-02-08T00:32:12.685Z,21.50
2023-02-08T00:34:59.874Z,21.33
2023-02-08T00:37:47.388Z,20.30
2023-02-08T00:40:34.888Z,19.03
2023-02-08T00:43:22.494Z,21.17
2023-02-08T00:46:10.492Z,21.27
2023-02-08T00:48:58.843Z,23.90
2023-02-08T00:51:45.902Z,23.73
2023-02-08T00:54:33.352Z,24.17
2023-02-08T00:57:20.756Z,23.23
2023-02-08T01:00:09.648Z,23.57
2023-02-08T01:02:58.377Z,25.67
2023-02-08T01:05:47.314Z,22.87
2023-02-08T01:08:35.086Z,23.47
2023-02-08T01:11:25.072Z,22.67
2023-02-08T01:14:12.205Z,24.87
2023-02-08T01:16:59.699Z,23.20
2023-02-08T01:19:46.936Z,21.03
2023-02-08T01:22:35.647Z,23.37
2023-02-08T01:25:23.124Z,21.60
2023-02-08T01:28:10.398Z,22.73
2023-02-08T01:30:58.039Z,23.10
2023-02-08T01:33:45.629Z,22.93
2023-02-08T01:36:33.617Z,21.60
2023-02-08T01:39:22.415Z,22.53
2023-02-08T01:42:14.286Z,19.87
2023-02-08T01:45:30.457Z,21.17
2023-02-08T01:48:20.732Z,22.00
2023-02-08T01:51:12.274Z,22.83
2023-02-08T01:54:01.784Z,19.33
2023-02-08T01:56:51.873Z,22.03
2023-02-08T01:59:43.819Z,20.27
2023-02-08T02:02:32.949Z,20.57
2023-02-08T02:05:21.053Z,20.43
2023-02-08T02:08:08.599Z,21.73
2023-02-08T02:10:55.999Z,18.73
2023-02-08T02:13:45.480Z,20.10
2023-02-08T02:16:35.222Z,22.27
2023-02-08T02:19:28.623Z,21.83
2023-02-08T02:22:35.829Z,17.27
2023-02-08T02:25:50.183Z,17.17
2023-02-08T02:28:58.849Z,16.43
2023-02-08T02:32:06.356Z,18.27
2023-02-08T02:35:02.288Z,16.93
2023-02-08T02:38:03.481Z,17.03
2023-02-08T02:41:02.837Z,16.80
2023-02-08T02:43:57.127Z,16.13
2023-02-08T02:46:51.466Z,17.07
2023-02-08T02:49:47.108Z,18.10
2023-02-08T02:52:41.394Z,17.33
2023-02-08T02:55:32.035Z,16.20
2023-02-08T02:58:22.678Z,15.27
2023-02-08T03:01:09.964Z,15.37
2023-02-08T03:03:57.820Z,14.27
2023-02-08T03:06:58.885Z,14.60
2023-02-08T03:09:57.551Z,14.07
2023-02-08T03:12:56.220Z,14.53
2023-02-08T03:15:56.191Z,14.00
2023-02-08T03:18:53.839Z,13.57
2023-02-08T03:21:47.930Z,15.40
2023-02-08T03:24:43.339Z,13.73
2023-02-08T03:27:37.164Z,14.57
2023-02-08T03:30:33.089Z,13.53
2023-02-08T03:33:26.827Z,13.47
2023-02-08T03:36:23.037Z,13.83
2023-02-08T03:39:16.746Z,13.73
2023-02-08T03:42:11.056Z,13.60
2023-02-08T03:45:02.759Z,12.53
2023-02-08T03:47:54.079Z,11.63
2023-02-08T03:50:43.039Z,13.10
2023-02-08T03:53:32.502Z,13.07
2023-02-08T03:56:29.970Z,11.90
2023-02-08T03:59:24.310Z,12.27
2023-02-08T04:02:15.102Z,11.50
2023-02-08T04:05:02.941Z,11.40
2023-02-08T04:07:50.332Z,11.03
2023-02-08T04:10:37.889Z,11.03
2023-02-08T04:13:25.566Z,11.03
2023-02-08T04:16:14.727Z,11.57
2023-02-08T04:19:02.040Z,11.07
2023-02-08T04:21:49.593Z,11.13
2023-02-08T04:24:37.109Z,11.40
2023-02-08T04:27:24.552Z,11.63
2023-02-08T04:30:13.108Z,11.67
2023-02-08T04:33:01.825Z,11.53
2023-02-08T04:35:49.044Z,12.00
2023-02-08T04:38:36.569Z,11.37
2023-02-08T04:41:23.712Z,11.63
2023-02-08T04:44:11.422Z,11.70
2023-02-08T04:46:58.936Z,11.23
2023-02-08T04:49:47.812Z,10.97
2023-02-08T04:52:35.164Z,11.10
2023-02-08T04:55:22.919Z,11.77
2023-02-08T04:58:10.036Z,11.37
2023-02-08T05:00:57.435Z,11.10
2023-02-08T05:03:44.959Z,10.30
2023-02-08T05:06:33.739Z,11.50
2023-02-08T05:09:20.979Z,10.73
2023-02-08T05:12:08.526Z,10.80
2023-02-08T05:14:56.081Z,10.67
2023-02-08T05:17:43.592Z,10.33
2023-02-08T05:20:31.025Z,11.03
2023-02-08T05:23:19.897Z,11.83
2023-02-08T05:26:08.074Z,10.87
2023-02-08T05:28:55.605Z,9.73
2023-02-08T05:31:43.339Z,9.97
2023-02-08T05:34:30.541Z,10.23
2023-02-08T05:37:18.155Z,10.87
2023-02-08T05:40:07.545Z,11.00
2023-02-08T05:42:54.986Z,11.37
2023-02-08T05:45:42.463Z,11.00
2023-02-08T05:48:30.936Z,10.60
2023-02-08T05:51:18.169Z,10.33
2023-02-08T05:54:05.786Z,10.73
2023-02-08T05:56:54.880Z,12.17
2023-02-08T05:59:42.270Z,9.87
2023-02-08T06:02:29.584Z,10.07
2023-02-08T06:05:17.011Z,10.43
2023-02-08T06:08:04.367Z,10.47
2023-02-08T06:10:51.531Z,10.57
2023-02-08T06:13:40.244Z,11.43
2023-02-08T06:16:27.525Z,10.80
2023-02-08T06:19:14.917Z,11.47
2023-02-08T06:22:02.457Z,12.30
2023-02-08T06:24:49.964Z,11.53
2023-02-08T06:27:37.459Z,10.67
2023-02-08T06:30:26.395Z,12.00
2023-02-08T06:33:15.768Z,12.70
2023-02-08T06:36:03.233Z,11.43
2023-02-08T06:38:51.390Z,12.20
2023-02-08T06:41:38.800Z,11.60
2023-02-08T06:44:26.275Z,11.50
2023-02-08T06:47:14.774Z,12.43
2023-02-08T06:50:01.926Z,12.50
2023-02-08T06:52:49.390Z,12.53
2023-02-08T06:55:36.897Z,13.73
2023-02-08T06:58:24.545Z,14.87
2023-02-08T07:01:13.562Z,12.97
2023-02-08T07:04:02.423Z,13.23
2023-02-08T07:06:50.358Z,12.47
2023-02-08T07:09:37.876Z,12.63
2023-02-08T07:12:25.506Z,13.90
2023-02-08T07:15:13.650Z,12.60
2023-02-08T07:18:00.820Z,11.03
2023-02-08T07:20:49.879Z,13.97
2023-02-08T07:23:37.395Z,12.37
2023-02-08T07:26:24.705Z,10.50
2023-02-08T07:29:12.054Z,12.63
2023-02-08T07:31:59.824Z,13.20
2023-02-08T07:34:47.259Z,13.83
2023-02-08T07:37:36.116Z,13.77
2023-02-08T07:40:23.213Z,14.17
2023-02-08T07:43:10.515Z,12.90
2023-02-08T07:46:10.812Z,12.40
2023-02-08T07:48:57.890Z,13.20
2023-02-08T07:51:45.237Z,12.20
2023-02-08T07:54:34.067Z,13.03
2023-02-08T07:57:22.141Z,14.23
2023-02-08T08:00:10.674Z,14.27
2023-02-08T08:02:59.406Z,13.50
2023-02-08T08:05:46.988Z,12.60
2023-02-08T08:08:34.233Z,14.07
2023-02-08T08:11:24.308Z,12.30
2023-02-08T08:14:11.773Z,13.20
2023-02-08T08:16:59.300Z,13.47
2023-02-08T08:19:47.171Z,13.37
2023-02-08T08:22:34.305Z,14.10
2023-02-08T08:25:21.694Z,13.50
2023-02-08T08:28:10.383Z,12.53
2023-02-08T08:30:57.765Z,14.60
2023-02-08T08:33:45.549Z,13.83
2023-02-08T08:41:00.202Z,14.20
2023-02-08T08:43:49.256Z,14.33
2023-02-08T08:46:36.479Z,13.87
2023-02-08T08:49:23.764Z,14.33
2023-02-08T08:52:11.672Z,13.27
2023-02-08T08:54:59.307Z,14.73
2023-02-08T08:57:46.905Z,13.80
2023-02-08T09:00:35.651Z,13.97
2023-02-08T09:03:22.867Z,12.53
2023-02-08T09:06:10.323Z,10.37
2023-02-08T09:08:57.912Z,11.23
2023-02-08T09:11:45.320Z,13.10
2023-02-08T09:14:32.707Z,12.30
2023-02-08T09:17:21.508Z,13.20
2023-02-08T09:20:09.142Z,13.70
2023-02-08T09:22:56.791Z,13.37
2023-02-08T09:25:44.327Z,15.37
2023-02-08T09:28:31.822Z,16.03
2023-02-08T09:31:21.546Z,14.73
2023-02-08T09:34:10.625Z,15.33
2023-02-08T09:36:58.315Z,14.40
2023-02-08T09:39:46.248Z,16.40
2023-02-08T09:42:42.787Z,16.60
2023-02-08T09:45:59.929Z,16.03
2023-02-08T09:48:49.132Z,15.57
2023-02-08T09:51:41.568Z,14.00
2023-02-08T09:54:34.357Z,14.67
2023-02-08T09:57:27.481Z,15.80
2023-02-08T10:00:20.228Z,15.87
2023-02-08T10:03:20.418Z,14.67
2023-02-08T10:06:10.869Z,16.30
2023-02-08T10:09:03.716Z,16.53
2023-02-08T10:12:01.169Z,16.47
2023-02-08T10:15:00.808Z,14.77
2023-02-08T10:18:09.727Z,17.07
2023-02-08T10:21:15.726Z,16.03
2023-02-08T10:24:25.913Z,15.17
2023-02-08T10:27:17.295Z,15.87
2023-02-08T10:30:28.462Z,15.20
2023-02-08T10:33:23.062Z,12.73
2023-02-08T10:36:15.998Z,14.40
2023-02-08T10:39:15.565Z,14.10
2023-02-08T10:42:03.989Z,13.90
2023-02-08T10:45:06.538Z,11.13
2023-02-08T10:48:04.682Z,8.50
2023-02-08T10:50:52.069Z,15.27
2023-02-08T10:53:39.525Z,14.70
2023-02-08T10:56:41.943Z,14.90
2023-02-08T10:59:33.835Z,12.03
2023-02-08T11:02:24.312Z,13.63
2023-02-08T11:05:15.494Z,16.87
2023-02-08T11:08:08.587Z,9.77
2023-02-08T11:11:00.959Z,13.50
2023-02-08T11:13:51.633Z,14.67
2023-02-08T11:16:39.723Z,15.43
2023-02-08T11:19:35.581Z,13.87
2023-02-08T11:22:25.271Z,15.27
2023-02-08T11:25:34.952Z,12.73
2023-02-08T11:28:25.590Z,14.70
2023-02-08T11:31:19.701Z,11.00
2023-02-08T11:34:09.163Z,14.67
2023-02-08T11:36:58.469Z,14.07
2023-02-08T11:39:51.627Z,9.27
2023-02-08T11:42:44.156Z,15.20
2023-02-08T11:45:33.417Z,12.97
2023-02-08T11:48:27.921Z,13.70
2023-02-08T11:51:25.739Z,11.83
2023-02-08T11:54:34.287Z,12.93
2023-02-08T11:57:23.825Z,13.17
2023-02-08T12:00:20.685Z,13.63
2023-02-08T12:03:15.597Z,13.63
2023-02-08T12:06:20.572Z,11.97
2023-02-08T12:09:14.691Z,10.13
2023-02-08T12:12:12.756Z,13.80
2023-02-08T12:15:07.494Z,8.07
2023-02-08T12:18:16.634Z,14.77
2023-02-08T12:21:12.015Z,14.70
2023-02-08T12:24:04.148Z,13.60
2023-02-08T12:27:06.492Z,15.87
2023-02-08T12:30:01.086Z,15.13
2023-02-08T12:33:05.551Z,16.47
2023-02-08T12:36:19.343Z,16.27
2023-02-08T12:39:42.713Z,17.17
2023-02-08T12:42:42.712Z,15.53
2023-02-08T12:45:52.524Z,13.40
2023-02-08T12:49:12.006Z,14.93
2023-02-08T12:52:14.961Z,15.63
2023-02-08T12:55:06.400Z,14.80
2023-02-08T12:57:57.030Z,16.00
2023-02-08T13:00:45.392Z,8.83
2023-02-08T13:03:40.128Z,14.57
2023-02-08T13:06:32.938Z,15.80
2023-02-08T13:09:36.735Z,14.23
2023-02-08T13:12:29.071Z,14.30
2023-02-08T13:15:30.218Z,14.63
2023-02-08T13:18:21.685Z,13.57
2023-02-08T13:21:13.689Z,13.63
2023-02-08T13:24:02.185Z,15.00
2023-02-08T13:26:50.930Z,12.67
2023-02-08T13:29:39.373Z,14.30
2023-02-08T13:32:30.792Z,14.13
2023-02-08T13:35:20.816Z,13.20
2023-02-08T13:38:21.133Z,12.80
2023-02-08T13:41:17.590Z,13.70
2023-02-08T13:44:08.741Z,12.13
2023-02-08T13:46:56.560Z,14.37
2023-02-08T13:49:53.998Z,15.00
2023-02-08T13:52:57.407Z,13.43
2023-02-08T13:56:00.076Z,13.83
2023-02-08T13:59:24.652Z,13.73
2023-02-08T14:02:29.936Z,13.43
2023-02-08T14:05:48.208Z,14.90
2023-02-08T14:08:44.705Z,14.03
2023-02-08T14:11:45.396Z,14.13
2023-02-08T14:14:38.813Z,13.53
2023-02-08T14:17:29.632Z,14.07
2023-02-08T14:20:22.495Z,13.83
2023-02-08T14:23:23.063Z,14.80
2023-02-08T14:26:20.689Z,13.27
2023-02-08T14:29:08.455Z,13.83
2023-02-08T14:31:58.291Z,14.70
2023-02-08T14:34:45.451Z,13.17
2023-02-08T14:37:34.796Z,12.87
2023-02-08T14:40:49.469Z,13.10
2023-02-08T14:43:38.245Z,13.37
2023-02-08T14:46:45.763Z,13.97
2023-02-08T14:49:43.351Z,13.77
2023-02-08T14:52:31.328Z,13.17
2023-02-08T14:55:26.415Z,13.13
2023-02-08T14:58:16.678Z,12.90
2023-02-08T15:01:08.003Z,12.30
2023-02-08T15:04:00.552Z,13.07
2023-02-08T15:07:17.132Z,13.70
2023-02-08T15:10:06.018Z,13.77
2023-02-08T15:12:57.646Z,13.17
2023-02-08T15:15:45.984Z,11.50
2023-02-08T15:18:33.937Z,13.77
2023-02-08T15:21:25.577Z,13.07
2023-02-08T15:24:18.841Z,13.77
2023-02-08T15:27:21.674Z,12.70
2023-02-08T15:30:27.454Z,10.83
2023-02-08T15:33:17.748Z,12.47
2023-02-08T15:36:08.468Z,13.13
2023-02-08T15:38:58.088Z,12.23
2023-02-08T15:41:49.499Z,12.40
2023-02-08T15:44:37.068Z,12.40
2023-02-08T15:47:28.766Z,13.03
2023-02-08T15:50:19.587Z,11.77
2023-02-08T15:53:08.563Z,13.97
2023-02-08T15:55:58.299Z,12.50
2023-02-08T15:58:52.458Z,12.03
2023-02-08T16:01:39.886Z,13.30
2023-02-08T16:04:27.492Z,13.13
2023-02-08T16:07:26.731Z,12.43
2023-02-08T16:10:24.866Z,12.13
2023-02-08T16:13:21.369Z,12.27
2023-02-08T16:16:21.695Z,12.70
2023-02-08T16:19:23.317Z,13.67
2023-02-08T16:22:26.590Z,11.60
2023-02-08T16:25:44.443Z,12.43
2023-02-08T16:28:34.228Z,13.10
2023-02-08T16:31:26.759Z,12.70
2023-02-08T16:34:18.143Z,12.77
2023-02-08T16:37:07.146Z,12.63
2023-02-08T16:39:55.973Z,13.50
2023-02-08T16:42:44.216Z,12.90
2023-02-08T16:45:31.821Z,13.27
2023-02-08T16:48:33.281Z,13.23
2023-02-08T16:51:23.106Z,13.60
2023-02-08T16:54:14.681Z,13.20
2023-02-08T16:57:02.480Z,12.70
2023-02-08T16:59:50.102Z,13.77
2023-02-08T17:02:37.668Z,13.90
2023-02-08T17:05:30.563Z,14.73
2023-02-08T17:08:21.131Z,14.30
2023-02-08T17:11:10.725Z,14.77
2023-02-08T17:13:58.757Z,14.97
2023-02-08T17:16:46.093Z,13.50
2023-02-08T17:19:33.505Z,15.33
2023-02-08T17:22:22.348Z,13.37
2023-02-08T17:25:09.623Z,13.90
2023-02-08T17:27:59.961Z,13.63
2023-02-08T17:30:48.773Z,13.20
2023-02-08T17:33:39.959Z,12.57
2023-02-08T17:36:27.460Z,12.73
2023-02-08T17:39:16.725Z,13.27
2023-02-08T17:42:04.021Z,13.40
2023-02-08T17:44:51.511Z,12.40
2023-02-08T17:47:41.528Z,13.17
2023-02-08T17:50:28.980Z,12.67
2023-02-08T17:53:16.295Z,12.27
2023-02-08T17:56:06.128Z,12.57
2023-02-08T17:58:55.343Z,12.87
2023-02-08T18:01:44.352Z,13.80
2023-02-08T18:04:31.759Z,14.10
2023-02-08T18:07:19.343Z,13.80
2023-02-08T18:10:07.617Z,14.07
2023-02-08T18:12:56.377Z,12.90
2023-02-08T18:15:44.201Z,13.53
2023-02-08T18:18:31.533Z,12.70
2023-02-08T18:21:22.093Z,12.63
2023-02-08T18:24:10.972Z,12.50
2023-02-08T18:26:59.873Z,12.63
2023-02-08T18:29:48.744Z,13.20
2023-02-08T18:32:35.994Z,14.97
2023-02-08T18:35:23.538Z,12.90
2023-02-08T18:38:10.990Z,12.27
2023-02-08T18:40:58.697Z,12.50
2023-02-08T18:43:46.285Z,13.50
2023-02-08T18:46:35.284Z,12.17
2023-02-08T18:49:22.417Z,13.33
2023-02-08T18:52:11.427Z,14.20
2023-02-08T18:54:59.040Z,13.40
2023-02-08T18:57:48.025Z,13.23
2023-02-08T19:00:35.381Z,14.00
2023-02-08T19:03:24.234Z,14.47
2023-02-08T19:06:13.563Z,15.13
2023-02-08T19:09:02.997Z,13.50
2023-02-08T19:11:50.844Z,13.37
2023-02-08T19:14:38.109Z,15.03
2023-02-08T19:17:25.463Z,15.07
2023-02-08T19:20:14.303Z,13.83
2023-02-08T19:23:01.784Z,14.97
2023-02-08T19:25:49.255Z,13.67
2023-02-08T19:28:37.096Z,13.17
2023-02-08T19:31:25.742Z,13.03
2023-02-08T19:34:14.143Z,13.13
2023-02-08T19:37:02.891Z,12.97
2023-02-08T19:39:50.549Z,12.13
2023-02-08T19:42:38.302Z,10.27
2023-02-08T19:45:25.965Z,11.53
2023-02-08T19:48:13.388Z,10.97
2023-02-08T19:51:01.531Z,10.90
2023-02-08T19:53:50.311Z,11.03
2023-02-08T19:56:38.294Z,10.90
2023-02-08T19:59:28.211Z,11.10
2023-02-08T20:02:17.815Z,11.13
2023-02-08T20:05:05.362Z,11.53
2023-02-08T20:07:52.767Z,11.33
2023-02-08T20:10:42.557Z,9.60
2023-02-08T20:13:29.806Z,11.17
2023-02-08T20:16:18.313Z,9.53
2023-02-08T20:19:06.476Z,10.27
2023-02-08T20:21:54.232Z,11.53
2023-02-08T20:24:41.600Z,10.03
2023-02-08T20:27:32.188Z,10.67
2023-02-08T20:30:19.888Z,10.83
2023-02-08T20:33:07.409Z,12.17
2023-02-08T20:35:55.419Z,11.83
2023-02-08T20:38:43.234Z,11.70
2023-02-08T20:41:33.813Z,11.63
2023-02-08T20:44:22.858Z,10.80
2023-02-08T20:47:10.692Z,10.10
2023-02-08T20:49:59.603Z,10.97
2023-02-08T20:52:49.029Z,10.97
2023-02-08T20:55:36.655Z,9.60
2023-02-08T20:58:23.976Z,9.90
2023-02-08T21:01:16.106Z,10.20
2023-02-08T21:04:04.969Z,8.83
2023-02-08T21:06:53.002Z,9.60
2023-02-08T21:09:40.660Z,9.53
2023-02-08T21:12:28.154Z,8.87
2023-02-08T21:15:15.700Z,9.30
2023-02-08T21:18:04.534Z,8.87
2023-02-08T21:20:52.131Z,8.53
2023-02-08T21:23:39.899Z,9.03
2023-02-08T21:26:27.572Z,9.03
2023-02-08T21:29:14.925Z,9.53
2023-02-08T21:32:02.362Z,9.10
2023-02-08T21:34:52.105Z,9.53
2023-02-08T21:37:39.345Z,8.90
2023-02-08T21:40:26.652Z,9.07
2023-02-08T21:43:14.136Z,9.60
2023-02-08T21:46:03.737Z,9.77
2023-02-08T21:49:09.167Z,8.43
2023-02-08T21:52:15.233Z,9.83
2023-02-08T21:55:02.355Z,7.20
2023-02-08T21:57:49.537Z,9.57
2023-02-08T22:00:37.003Z,7.57
2023-02-08T22:03:24.581Z,8.90
2023-02-08T22:06:11.719Z,8.83
2023-02-08T22:09:00.469Z,8.37
2023-02-08T22:11:49.304Z,8.23
2023-02-08T22:14:37.041Z,9.43
2023-02-08T22:17:24.279Z,8.97
2023-02-08T22:20:13.097Z,8.57
2023-02-08T22:23:01.837Z,9.40
2023-02-08T22:25:50.517Z,9.13
2023-02-08T22:28:37.985Z,9.03
2023-02-08T22:31:25.613Z,9.30
2023-02-08T22:34:13.170Z,9.63
2023-02-08T22:37:03.640Z,8.77
2023-02-08T22:39:51.150Z,10.03
2023-02-08T22:42:41.055Z,8.77
2023-02-08T22:45:28.180Z,9.40
2023-02-08T22:48:15.641Z,9.57
2023-02-08T22:51:06.914Z,9.73
2023-02-08T22:53:56.206Z,8.10
2023-02-08T22:56:43.305Z,8.80
2023-02-08T22:59:32.364Z,9.10
2023-02-08T23:02:19.877Z,9.07
2023-02-08T23:05:07.940Z,9.07
2023-02-08T23:07:55.446Z,9.60
2023-02-08T23:10:43.446Z,8.93
2023-02-08T23:13:32.356Z,9.50
2023-02-08T23:16:21.046Z,9.63
2023-02-08T23:19:08.187Z,9.67
2023-02-08T23:21:59.354Z,9.30
2023-02-08T23:24:46.742Z,9.37
2023-02-08T23:27:34.174Z,9.97
2023-02-08T23:30:21.770Z,9.27
2023-02-08T23:33:10.413Z,9.67
2023-02-08T23:35:57.495Z,9.17
2023-02-08T23:38:45.484Z,8.23
2023-02-08T23:41:34.158Z,9.30
2023-02-08T23:44:21.463Z,8.40
2023-02-08T23:47:08.919Z,9.03
2023-02-08T23:49:57.926Z,8.50
2023-02-08T23:52:45.137Z,8.13
2023-02-08T23:55:32.363Z,8.80
2023-02-08T23:58:19.804Z,9.33
